createdAt,value
2018-03-14T00:00:52.512Z,100789.84
2018-03-14T00:03:19.972Z,100798.21
2018-03-14T00:05:48.390Z,100798.39
2018-03-14T00:08:15.873Z,100798.81
2018-03-14T00:10:43.350Z,100801.41
2018-03-14T00:13:10.820Z,100800.14
2018-03-14T00:15:38.476Z,100806.48
2018-03-14T00:18:06.004Z,100804.91
2018-03-14T00:20:33.495Z,100812.57
2018-03-14T00:23:00.973Z,100816.63
2018-03-14T00:25:28.458Z,100818.53
2018-03-14T00:27:55.935Z,100818.00
2018-03-14T00:30:23.393Z,100827.00
2018-03-14T00:32:51.778Z,100823.73
2018-03-14T00:35:19.243Z,100830.43
2018-03-14T00:37:46.730Z,100835.97
2018-03-14T00:40:14.203Z,100828.74
2018-03-14T00:42:41.677Z,100834.94
2018-03-14T00:45:09.137Z,100829.67
2018-03-14T00:47:36.612Z,100829.42
2018-03-14T00:50:05.981Z,100832.77
2018-03-14T00:52:33.452Z,100835.50
2018-03-14T00:55:01.361Z,100834.06
2018-03-14T00:57:28.838Z,100832.77
2018-03-14T00:59:56.319Z,100836.30
2018-03-14T01:02:23.807Z,100835.38
2018-03-14T01:04:51.269Z,100835.79
2018-03-14T01:07:18.728Z,100832.84
2018-03-14T01:09:46.354Z,100838.05
2018-03-14T01:12:13.833Z,100835.64
2018-03-14T01:14:41.301Z,100846.20
2018-03-14T01:17:08.756Z,100848.57
2018-03-14T01:19:36.227Z,100849.73
2018-03-14T01:22:03.680Z,100852.69
2018-03-14T01:24:31.156Z,100853.43
2018-03-14T01:26:58.621Z,100863.30
2018-03-14T01:29:26.105Z,100865.05
2018-03-14T01:31:53.557Z,100864.41
2018-03-14T01:34:21.038Z,100869.62
2018-03-14T01:36:48.500Z,100863.33
2018-03-14T01:39:15.994Z,100866.38
2018-03-14T01:41:43.459Z,100864.58
2018-03-14T01:44:10.945Z,100867.34
2018-03-14T01:46:39.309Z,100870.34
2018-03-14T01:49:06.797Z,100870.00
2018-03-14T01:51:34.277Z,100873.78
2018-03-14T01:54:01.768Z,100870.80
2018-03-14T01:56:29.223Z,100874.23
2018-03-14T01:58:56.697Z,100873.77
2018-03-14T02:01:24.167Z,100881.08
2018-03-14T02:03:51.640Z,100884.59
2018-03-14T02:06:19.105Z,100884.76
2018-03-14T02:08:47.501Z,100881.45
2018-03-14T02:11:15.874Z,100885.77
2018-03-14T02:13:43.353Z,100879.05
2018-03-14T02:16:10.813Z,100887.84
2018-03-14T02:18:38.269Z,100889.61
2018-03-14T02:21:05.758Z,100887.31
2018-03-14T02:23:33.233Z,100892.91
2018-03-14T02:26:00.713Z,100897.39
2018-03-14T02:28:28.184Z,100902.77
2018-03-14T02:30:55.657Z,100898.27
2018-03-14T02:33:23.125Z,100904.03
2018-03-14T02:35:50.606Z,100910.91
2018-03-14T02:38:18.073Z,100915.09
2018-03-14T02:40:45.562Z,100920.45
2018-03-14T02:43:13.026Z,100916.15
2018-03-14T02:45:40.505Z,100927.06
2018-03-14T02:48:07.960Z,100937.02
2018-03-14T02:50:35.469Z,100931.80
2018-03-14T02:53:02.887Z,100936.25
2018-03-14T02:55:30.371Z,100938.34
2018-03-14T02:57:57.813Z,100946.28
2018-03-14T03:00:25.277Z,100948.09
2018-03-14T03:02:52.719Z,100952.36
2018-03-14T03:05:20.193Z,100953.73
2018-03-14T03:07:47.640Z,100955.15
2018-03-14T03:10:15.106Z,100955.66
2018-03-14T03:12:42.553Z,100961.58
2018-03-14T03:15:10.021Z,100960.45
2018-03-14T03:17:37.477Z,100961.50
2018-03-14T03:20:04.942Z,100959.88
2018-03-14T03:22:32.387Z,100965.25
2018-03-14T03:24:59.844Z,100971.30
2018-03-14T03:27:27.357Z,100975.15
2018-03-14T03:29:54.825Z,100977.70
2018-03-14T03:32:22.271Z,100986.45
2018-03-14T03:34:49.716Z,100991.50
2018-03-14T03:37:17.159Z,100997.98
2018-03-14T03:39:44.621Z,101002.63
2018-03-14T03:42:12.056Z,100995.91
2018-03-14T03:44:39.513Z,100994.06
2018-03-14T03:47:06.953Z,101006.23
2018-03-14T03:49:34.412Z,101022.02
2018-03-14T03:52:01.853Z,101016.66
2018-03-14T03:54:29.313Z,101020.64
2018-03-14T03:56:56.760Z,101023.95
2018-03-14T03:59:24.217Z,101034.41
2018-03-14T04:01:51.657Z,101031.58
2018-03-14T04:04:19.120Z,101033.77
2018-03-14T04:06:46.571Z,101022.70
2018-03-14T04:09:14.024Z,101035.39
2018-03-14T04:11:41.497Z,101041.24
2018-03-14T04:14:08.940Z,101046.73
2018-03-14T04:16:36.397Z,101049.44
2018-03-14T04:19:05.741Z,101056.23
2018-03-14T04:21:33.210Z,101057.53
2018-03-14T04:24:00.646Z,101056.70
2018-03-14T04:26:28.113Z,101067.52
2018-03-14T04:28:55.552Z,101067.96
2018-03-14T04:31:23.013Z,101063.04
2018-03-14T04:33:50.457Z,101066.25
2018-03-14T04:36:17.921Z,101072.10
2018-03-14T04:38:45.370Z,101066.82
2018-03-14T04:41:12.836Z,101074.31
2018-03-14T04:43:40.282Z,101075.76
2018-03-14T04:46:07.758Z,101079.14
2018-03-14T04:48:35.198Z,101077.84
2018-03-14T04:51:02.653Z,101071.23
2018-03-14T04:53:30.093Z,101085.00
2018-03-14T04:55:57.548Z,101092.80
2018-03-14T04:58:25.015Z,101091.00
2018-03-14T05:00:52.475Z,101088.30
2018-03-14T05:03:19.915Z,101089.17
2018-03-14T05:05:47.381Z,101081.00
2018-03-14T05:08:14.833Z,101086.70
2018-03-14T05:10:42.294Z,101091.77
2018-03-14T05:13:09.747Z,101092.17
2018-03-14T05:15:37.214Z,101097.95
2018-03-14T05:18:04.662Z,101098.72
2018-03-14T05:20:33.055Z,101100.66
2018-03-14T05:23:00.517Z,101101.69
2018-03-14T05:25:27.982Z,101100.74
2018-03-14T05:27:55.429Z,101110.09
2018-03-14T05:30:22.880Z,101112.84
2018-03-14T05:32:50.320Z,101113.48
2018-03-14T05:35:18.682Z,101119.72
2018-03-14T05:37:46.121Z,101118.11
2018-03-14T05:40:13.582Z,101120.94
2018-03-14T05:42:41.925Z,101117.16
2018-03-14T05:45:09.382Z,101121.27
2018-03-14T05:47:36.829Z,101122.31
2018-03-14T05:50:04.285Z,101129.92
2018-03-14T05:52:31.731Z,101134.54
2018-03-14T05:54:59.189Z,101139.60
2018-03-14T05:57:27.530Z,101144.24
2018-03-14T05:59:55.001Z,101142.81
2018-03-14T06:02:22.445Z,101147.44
2018-03-14T06:04:49.909Z,101150.03
2018-03-14T06:07:17.345Z,101151.05
2018-03-14T06:09:44.802Z,101151.83
2018-03-14T06:12:12.245Z,101149.63
2018-03-14T06:14:39.701Z,101153.32
2018-03-14T06:17:07.172Z,101153.24
2018-03-14T06:19:34.613Z,101159.25
2018-03-14T06:22:02.062Z,101156.97
2018-03-14T06:24:29.525Z,101157.50
2018-03-14T06:26:57.877Z,101171.78
2018-03-14T06:29:25.334Z,101170.48
2018-03-14T06:31:52.798Z,101180.83
2018-03-14T06:34:20.249Z,101178.09
2018-03-14T06:36:47.721Z,101180.09
2018-03-14T06:39:15.157Z,101184.05
2018-03-14T06:41:42.626Z,101183.37
2018-03-14T06:44:10.073Z,101186.84
2018-03-14T06:46:38.433Z,101189.54
2018-03-14T06:49:05.873Z,101194.42
2018-03-14T06:51:34.219Z,101196.50
2018-03-14T06:54:01.672Z,101193.64
2018-03-14T06:56:29.104Z,101201.12
2018-03-14T06:59:09.089Z,101204.45
2018-03-14T07:01:48.169Z,101210.57
2018-03-14T07:04:27.218Z,101216.05
2018-03-14T07:06:54.682Z,101216.80
2018-03-14T07:09:22.132Z,101218.02
2018-03-14T07:11:49.593Z,101226.66
2018-03-14T07:14:17.043Z,101224.36
2018-03-14T07:16:44.509Z,101220.04
2018-03-14T07:19:11.953Z,101221.91
2018-03-14T07:21:39.419Z,101225.34
2018-03-14T07:24:06.857Z,101229.09
2018-03-14T07:26:34.356Z,101231.54
2018-03-14T07:29:01.801Z,101235.73
2018-03-14T07:31:29.251Z,101234.97
2018-03-14T07:33:56.709Z,101237.92
2018-03-14T07:36:25.069Z,101235.83
2018-03-14T07:38:52.521Z,101245.86
2018-03-14T07:41:19.977Z,101255.08
2018-03-14T07:43:47.450Z,101250.08
2018-03-14T07:46:14.897Z,101256.56
2018-03-14T07:48:44.270Z,101248.66
2018-03-14T07:51:11.729Z,101252.97
2018-03-14T07:53:40.085Z,101249.95
2018-03-14T07:56:07.533Z,101257.39
2018-03-14T07:58:35.002Z,101256.05
2018-03-14T08:01:02.436Z,101261.23
2018-03-14T08:03:29.890Z,101259.84
2018-03-14T08:05:57.332Z,101259.05
2018-03-14T08:08:24.785Z,101257.75
2018-03-14T08:10:53.120Z,101262.23
2018-03-14T08:13:20.623Z,101258.62
2018-03-14T08:15:48.044Z,101264.18
2018-03-14T08:18:15.508Z,101269.47
2018-03-14T08:20:42.960Z,101270.13
2018-03-14T08:23:10.420Z,101271.33
2018-03-14T08:25:37.887Z,101272.12
2018-03-14T08:28:05.362Z,101270.84
2018-03-14T08:30:32.806Z,101273.66
2018-03-14T08:33:00.275Z,101271.20
2018-03-14T08:35:27.712Z,101270.45
2018-03-14T08:37:55.160Z,101276.76
2018-03-14T08:40:22.592Z,101284.29
2018-03-14T08:42:50.040Z,101279.77
2018-03-14T08:45:18.393Z,101283.66
2018-03-14T08:47:45.840Z,101287.14
2018-03-14T08:50:13.303Z,101283.91
2018-03-14T08:52:40.781Z,101289.84
2018-03-14T08:55:08.232Z,101289.25
2018-03-14T08:57:35.694Z,101291.86
2018-03-14T09:02:53.226Z,101299.34
2018-03-14T09:05:20.654Z,101298.94
2018-03-14T09:07:48.090Z,101307.84
2018-03-14T09:10:16.432Z,101300.72
2018-03-14T09:12:44.789Z,101306.03
2018-03-14T09:15:12.229Z,101308.77
2018-03-14T09:17:40.598Z,101307.61
2018-03-14T09:20:08.048Z,101312.21
2018-03-14T09:22:36.416Z,101314.20
2018-03-14T09:25:03.862Z,101317.02
2018-03-14T09:27:32.261Z,101318.72
2018-03-14T09:29:59.700Z,101321.52
2018-03-14T09:32:27.157Z,101329.93
2018-03-14T09:34:58.233Z,101333.33
2018-03-14T09:37:25.689Z,101335.71
2018-03-14T09:39:53.140Z,101332.38
2018-03-14T09:42:20.606Z,101340.48
2018-03-14T09:44:48.062Z,101346.53
2018-03-14T09:47:15.534Z,101345.81
2018-03-14T09:49:43.908Z,101345.72
2018-03-14T09:52:11.352Z,101348.08
2018-03-14T09:54:38.798Z,101352.05
2018-03-14T09:57:06.273Z,101345.81
2018-03-14T09:59:33.721Z,101353.27
2018-03-14T10:02:01.190Z,101348.37
2018-03-14T10:04:28.657Z,101356.66
2018-03-14T10:06:56.104Z,101358.99
2018-03-14T10:09:24.487Z,101352.73
2018-03-14T10:11:51.942Z,101352.80
2018-03-14T10:14:19.382Z,101347.01
2018-03-14T10:16:46.842Z,101348.27
2018-03-14T10:19:15.284Z,101354.17
2018-03-14T10:21:42.733Z,101361.38
2018-03-14T10:24:11.082Z,101357.95
2018-03-14T10:26:38.545Z,101363.38
2018-03-14T10:29:06.029Z,101361.04
2018-03-14T10:31:33.469Z,101357.66
2018-03-14T10:34:00.929Z,101362.27
2018-03-14T10:36:28.389Z,101365.17
2018-03-14T10:38:55.841Z,101373.13
2018-03-14T10:41:23.293Z,101375.00
2018-03-14T10:43:51.657Z,101377.62
2018-03-14T10:46:19.125Z,101377.05
2018-03-14T10:48:46.576Z,101376.75
2018-03-14T10:51:14.037Z,101370.77
2018-03-14T10:53:41.484Z,101374.27
2018-03-14T10:56:12.302Z,101377.31
2018-03-14T10:58:39.789Z,101378.25
2018-03-14T11:01:10.040Z,101372.64
2018-03-14T11:03:44.316Z,101378.70
2018-03-14T11:06:11.811Z,101380.89
2018-03-14T11:08:39.249Z,101372.06
2018-03-14T11:11:06.744Z,101376.37
2018-03-14T11:13:35.073Z,101369.61
2018-03-14T11:16:02.543Z,101362.58
2018-03-14T11:18:30.015Z,101370.27
2018-03-14T11:20:57.468Z,101366.73
2018-03-14T11:23:24.928Z,101366.34
2018-03-14T11:25:56.982Z,101366.13
2018-03-14T11:28:24.441Z,101369.80
2018-03-14T11:30:52.807Z,101358.41
2018-03-14T11:33:20.312Z,101368.13
2018-03-14T11:35:47.767Z,101364.09
2018-03-14T11:38:15.226Z,101366.11
2018-03-14T11:40:43.585Z,101359.63
2018-03-14T11:43:11.060Z,101359.95
2018-03-14T11:45:38.516Z,101359.11
2018-03-14T11:48:05.989Z,101362.63
2018-03-14T11:50:33.451Z,101363.85
2018-03-14T11:53:01.845Z,101366.28
2018-03-14T11:55:29.318Z,101367.94
2018-03-14T11:57:56.781Z,101366.88
2018-03-14T12:00:24.232Z,101365.27
2018-03-14T12:02:51.693Z,101367.12
2018-03-14T12:05:19.141Z,101366.94
2018-03-14T12:07:46.605Z,101370.07
2018-03-14T12:10:14.102Z,101368.90
2018-03-14T12:12:41.557Z,101364.19
2018-03-14T12:15:09.010Z,101365.60
2018-03-14T12:17:36.483Z,101370.25
2018-03-14T12:20:03.946Z,101368.98
2018-03-14T12:22:31.417Z,101378.11
2018-03-14T12:24:58.889Z,101374.17
2018-03-14T12:27:26.358Z,101376.37
2018-03-14T12:29:53.862Z,101377.62
2018-03-14T12:32:21.306Z,101380.18
2018-03-14T12:34:48.753Z,101371.48
2018-03-14T12:37:16.232Z,101374.02
2018-03-14T12:39:43.686Z,101364.54
2018-03-14T12:42:11.229Z,101376.19
2018-03-14T12:44:38.662Z,101376.11
2018-03-14T12:47:06.129Z,101374.64
2018-03-14T12:49:33.593Z,101366.75
2018-03-14T12:52:01.093Z,101371.70
2018-03-14T12:54:28.546Z,101375.55
2018-03-14T12:56:56.018Z,101376.50
2018-03-14T12:59:23.542Z,101372.16
2018-03-14T13:01:51.009Z,101371.58
2018-03-14T13:04:18.458Z,101369.19
2018-03-14T13:06:45.921Z,101365.24
2018-03-14T13:09:13.370Z,101367.05
2018-03-14T13:11:40.899Z,101365.08
2018-03-14T13:14:08.306Z,101371.48
2018-03-14T13:16:35.780Z,101370.91
2018-03-14T13:19:03.238Z,101371.96
2018-03-14T13:21:31.602Z,101374.81
2018-03-14T13:23:59.059Z,101376.21
2018-03-14T13:26:26.530Z,101379.55
2018-03-14T13:28:54.885Z,101380.14
2018-03-14T13:31:24.262Z,101374.31
2018-03-14T13:33:51.722Z,101376.33
2018-03-14T13:36:19.173Z,101375.28
2018-03-14T13:38:46.640Z,101378.48
2018-03-14T13:41:14.085Z,101367.27
2018-03-14T13:43:41.548Z,101371.85
2018-03-14T13:46:09.000Z,101374.47
2018-03-14T13:48:36.471Z,101371.76
2018-03-14T13:51:05.813Z,101378.12
2018-03-14T13:53:34.189Z,101381.02
2018-03-14T13:56:02.549Z,101378.72
2018-03-14T13:58:30.026Z,101381.40
2018-03-14T14:00:57.490Z,101385.84
2018-03-14T14:03:24.988Z,101390.58
2018-03-14T14:05:53.351Z,101386.79
2018-03-14T14:08:21.721Z,101385.20
2018-03-14T14:10:50.070Z,101382.79
2018-03-14T14:13:19.446Z,101382.27
2018-03-14T14:15:46.908Z,101386.59
2018-03-14T14:18:14.425Z,101376.31
2018-03-14T14:20:42.800Z,101373.95
2018-03-14T14:23:11.165Z,101381.20
2018-03-14T14:25:40.155Z,101381.55
2018-03-14T14:28:07.684Z,101388.02
2018-03-14T14:30:35.163Z,101392.00
2018-03-14T14:33:02.692Z,101380.15
2018-03-14T14:35:30.258Z,101387.23
2018-03-14T14:37:57.829Z,101391.39
2018-03-14T14:40:25.402Z,101386.98
2018-03-14T14:42:53.020Z,101389.98
2018-03-14T14:45:20.718Z,101390.53
2018-03-14T14:47:49.030Z,101391.39
2018-03-14T14:50:17.119Z,101386.58
2018-03-14T14:52:44.979Z,101383.20
2018-03-14T14:55:13.433Z,101376.59
2018-03-14T14:57:41.847Z,101381.38
2018-03-14T15:00:09.337Z,101380.58
2018-03-14T15:02:36.858Z,101380.70
2018-03-14T15:05:06.295Z,101381.20
2018-03-14T15:07:34.766Z,101385.11
2018-03-14T15:10:02.268Z,101380.64
2018-03-14T15:12:30.781Z,101373.45
2018-03-14T15:14:59.191Z,101369.77
2018-03-14T15:17:26.678Z,101375.80
2018-03-14T15:19:54.159Z,101369.41
2018-03-14T15:22:21.713Z,101377.25
2018-03-14T15:24:50.122Z,101368.97
2018-03-14T15:27:18.477Z,101365.60
2018-03-14T15:29:45.989Z,101370.36
2018-03-14T15:32:14.429Z,101363.29
2018-03-14T15:34:41.905Z,101360.95
2018-03-14T15:37:09.359Z,101358.97
2018-03-14T15:39:37.728Z,101352.75
2018-03-14T15:42:05.210Z,101348.52
2018-03-14T15:44:37.520Z,101352.35
2018-03-14T15:47:05.913Z,101344.61
2018-03-14T15:49:33.409Z,101349.53
2018-03-14T15:52:00.890Z,101357.92
2018-03-14T15:54:29.273Z,101364.09
2018-03-14T15:56:56.748Z,101364.48
2018-03-14T15:59:24.208Z,101364.40
2018-03-14T16:01:51.667Z,101358.81
2018-03-14T16:04:19.142Z,101356.27
2018-03-14T16:06:46.586Z,101354.42
2018-03-14T16:09:14.054Z,101355.14
2018-03-14T16:11:41.502Z,101353.56
2018-03-14T16:14:08.973Z,101354.36
2018-03-14T16:16:36.425Z,101359.25
2018-03-14T16:19:03.913Z,101361.38
2018-03-14T16:21:31.363Z,101355.63
2018-03-14T16:23:58.830Z,101360.16
2018-03-14T16:26:26.283Z,101362.17
2018-03-14T16:28:53.762Z,101360.33
2018-03-14T16:31:21.205Z,101363.73
2018-03-14T16:33:48.776Z,101361.59
2018-03-14T16:36:16.234Z,101358.16
2018-03-14T16:38:43.704Z,101365.06
2018-03-14T16:41:11.254Z,101361.92
2018-03-14T16:43:38.733Z,101361.34
2018-03-14T16:46:06.190Z,101361.97
2018-03-14T16:48:33.699Z,101362.93
2018-03-14T16:51:01.165Z,101357.69
2018-03-14T16:53:28.643Z,101361.37
2018-03-14T16:55:56.991Z,101364.76
2018-03-14T16:58:24.470Z,101365.56
2018-03-14T17:00:51.961Z,101367.53
2018-03-14T17:03:19.426Z,101364.73
2018-03-14T17:05:46.882Z,101368.19
2018-03-14T17:08:14.339Z,101365.11
2018-03-14T17:10:41.810Z,101366.67
2018-03-14T17:13:09.278Z,101360.70
2018-03-14T17:15:36.772Z,101360.77
2018-03-14T17:18:04.209Z,101359.72
2018-03-14T17:20:32.622Z,101369.99
2018-03-14T17:23:00.054Z,101359.88
2018-03-14T17:25:27.545Z,101370.22
2018-03-14T17:27:55.015Z,101373.53
2018-03-14T17:30:22.501Z,101363.91
2018-03-14T17:32:49.977Z,101363.26
2018-03-14T17:35:17.438Z,101364.09
2018-03-14T17:37:44.945Z,101363.73
2018-03-14T17:40:12.414Z,101365.43
2018-03-14T17:42:41.774Z,101361.59
2018-03-14T17:45:09.228Z,101353.32
2018-03-14T17:47:36.731Z,101351.77
2018-03-14T17:50:04.182Z,101352.56
2018-03-14T17:52:31.636Z,101360.38
2018-03-14T17:55:00.997Z,101346.64
2018-03-14T17:57:28.452Z,101345.50
2018-03-14T17:59:55.913Z,101339.30
2018-03-14T18:02:23.372Z,101337.08
2018-03-14T18:04:50.824Z,101340.75
2018-03-14T18:07:21.213Z,101339.28
2018-03-14T18:09:48.782Z,101344.15
2018-03-14T18:12:16.288Z,101329.75
2018-03-14T18:14:43.757Z,101332.20
2018-03-14T18:17:11.225Z,101333.44
2018-03-14T18:19:38.762Z,101329.05
2018-03-14T18:22:07.153Z,101334.19
2018-03-14T18:24:35.504Z,101329.65
2018-03-14T18:27:03.011Z,101323.88
2018-03-14T18:29:30.481Z,101326.41
2018-03-14T18:31:57.970Z,101326.13
2018-03-14T18:34:25.453Z,101329.30
2018-03-14T18:36:53.825Z,101331.11
2018-03-14T18:39:21.271Z,101327.00
2018-03-14T18:41:48.741Z,101320.76
2018-03-14T18:44:16.176Z,101327.00
2018-03-14T18:46:44.537Z,101327.98
2018-03-14T18:49:12.015Z,101326.08
2018-03-14T18:51:41.387Z,101327.77
2018-03-14T18:54:08.833Z,101320.39
2018-03-14T18:56:36.304Z,101327.45
2018-03-14T18:59:03.761Z,101327.97
2018-03-14T19:01:31.228Z,101319.05
2018-03-14T19:03:58.685Z,101329.38
2018-03-14T19:06:26.157Z,101328.39
2018-03-14T19:08:53.613Z,101327.64
2018-03-14T19:11:21.108Z,101328.28
2018-03-14T19:13:48.564Z,101330.80
2018-03-14T19:16:16.092Z,101330.08
2018-03-14T19:18:44.446Z,101326.23
2018-03-14T19:21:11.912Z,101325.96
2018-03-14T19:23:39.361Z,101334.27
2018-03-14T19:26:06.841Z,101333.22
2018-03-14T19:28:37.516Z,101336.83
2018-03-14T19:31:05.016Z,101338.50
2018-03-14T19:33:32.476Z,101337.44
2018-03-14T19:35:59.957Z,101343.66
2018-03-14T19:38:28.321Z,101338.14
2018-03-14T19:40:55.790Z,101338.34
2018-03-14T19:43:24.163Z,101331.89
2018-03-14T19:45:51.653Z,101329.84
2018-03-14T19:48:19.124Z,101328.18
2018-03-14T19:53:22.167Z,101327.61
2018-03-14T19:55:54.358Z,101332.27
2018-03-14T19:58:21.819Z,101340.65
2018-03-14T20:00:51.223Z,101333.70
2018-03-14T20:03:18.679Z,101332.57
2018-03-14T20:05:46.148Z,101332.68
2018-03-14T20:08:13.728Z,101330.38
2018-03-14T20:10:41.218Z,101332.23
2018-03-14T20:13:08.673Z,101324.45
2018-03-14T20:15:36.158Z,101321.63
2018-03-14T20:18:03.632Z,101333.12
2018-03-14T20:20:32.000Z,101328.55
2018-03-14T20:22:59.457Z,101329.82
2018-03-14T20:25:26.944Z,101330.62
2018-03-14T20:27:55.122Z,101334.00
2018-03-14T20:30:23.497Z,101342.83
2018-03-14T20:32:50.950Z,101342.98
2018-03-14T20:35:18.421Z,101342.83
2018-03-14T20:37:45.883Z,101340.23
2018-03-14T20:40:15.281Z,101340.02
2018-03-14T20:42:42.749Z,101330.11
2018-03-14T20:45:12.125Z,101324.40
2018-03-14T20:47:40.490Z,101326.47
2018-03-14T20:50:07.961Z,101320.98
2018-03-14T20:52:36.317Z,101322.13
2018-03-14T20:55:03.797Z,101316.84
2018-03-14T20:57:31.250Z,101314.93
2018-03-14T20:59:58.722Z,101318.92
2018-03-14T21:02:26.177Z,101316.14
2018-03-14T21:04:53.666Z,101321.08
2018-03-14T21:07:21.121Z,101318.58
2018-03-14T21:09:49.459Z,101320.34
2018-03-14T21:12:16.921Z,101319.38
2018-03-14T21:14:44.450Z,101322.32
2018-03-14T21:17:11.909Z,101321.90
2018-03-14T21:19:39.400Z,101320.53
2018-03-14T21:22:06.856Z,101334.10
2018-03-14T21:24:34.325Z,101326.89
2018-03-14T21:27:01.794Z,101329.30
2018-03-14T21:29:29.275Z,101320.42
2018-03-14T21:31:56.734Z,101322.91
2018-03-14T21:34:24.217Z,101326.56
2018-03-14T21:36:51.678Z,101329.46
2018-03-14T21:39:19.206Z,101333.13
2018-03-14T21:41:46.617Z,101334.95
2018-03-14T21:44:14.111Z,101343.26
2018-03-14T21:46:41.628Z,101346.22
2018-03-14T21:49:09.032Z,101339.85
2018-03-14T21:51:36.509Z,101337.12
2018-03-14T21:54:03.971Z,101327.69
2018-03-14T21:56:31.443Z,101325.96
2018-03-14T21:58:58.893Z,101333.04
2018-03-14T22:01:26.370Z,101340.03
2018-03-14T22:03:53.833Z,101335.06
2018-03-14T22:06:21.337Z,101332.45
2018-03-14T22:08:48.785Z,101333.34
2018-03-14T22:11:16.271Z,101331.95
2018-03-14T22:13:43.743Z,101333.17
2018-03-14T22:16:11.224Z,101326.62
2018-03-14T22:18:38.698Z,101325.16
2018-03-14T22:21:06.185Z,101335.50
2018-03-14T22:23:33.642Z,101331.89
2018-03-14T22:26:01.117Z,101330.75
2018-03-14T22:28:28.584Z,101338.75
2018-03-14T22:30:56.096Z,101331.52
2018-03-14T22:33:23.553Z,101331.64
2018-03-14T22:35:51.041Z,101329.63
2018-03-14T22:38:18.493Z,101323.83
2018-03-14T22:40:45.970Z,101321.05
2018-03-14T22:43:13.446Z,101317.58
2018-03-14T22:45:40.936Z,101308.75
2018-03-14T22:48:08.403Z,101304.38
2018-03-14T22:50:35.885Z,101303.51
2018-03-14T22:53:04.265Z,101306.86
2018-03-14T22:55:31.735Z,101302.11
2018-03-14T22:57:59.191Z,101296.05
2018-03-14T23:00:26.682Z,101297.19
2018-03-14T23:02:54.137Z,101306.44
2018-03-14T23:05:21.621Z,101303.52
2018-03-14T23:07:49.078Z,101300.69
2018-03-14T23:10:16.570Z,101304.67
2018-03-14T23:12:44.046Z,101301.61
2018-03-14T23:15:11.518Z,101299.08
2018-03-14T23:17:38.983Z,101295.19
2018-03-14T23:20:06.442Z,101300.83
2018-03-14T23:22:33.908Z,101305.92
2018-03-14T23:25:01.379Z,101306.80
2018-03-14T23:27:28.833Z,101298.22
2018-03-14T23:29:56.304Z,101296.36
2018-03-14T23:32:23.757Z,101299.06
2018-03-14T23:34:51.217Z,101299.75
2018-03-14T23:37:18.742Z,101307.70
2018-03-14T23:39:46.174Z,101308.59
2018-03-14T23:42:13.641Z,101302.02
2018-03-14T23:44:41.093Z,101299.28
2018-03-14T23:47:08.560Z,101309.06
2018-03-14T23:49:36.025Z,101307.72
2018-03-14T23:52:03.477Z,101306.91
2018-03-14T23:54:30.947Z,101299.88
2018-03-14T23:56:58.402Z,101300.97
2018-03-14T23:59:25.882Z,101301.91
